Time;durP1;ratioP1;P1;durP2;ratioP2;P2;SDS_P1;SDS_P2;PMS_P1;PMS_P2;Temp;Humidity;BMP_temperature;BMP_pressure;BME280_temperature;BME280_humidity;BME280_pressure;Samples;Min_cycle;Max_cycle;Signal;HPM_P1;HPM_P2
2023/10/10 00:00:57;;;;;;;;;22.67;19.00;;;;;16.88;100.00;101999.75;5048008;28;45404;-77
2023/10/10 00:03:24;;;;;;;;;18.67;17.33;;;;;16.84;100.00;102004.22;5052048;28;45428;-76
2023/10/10 00:05:50;;;;;;;;;21.67;17.67;;;;;16.84;100.00;102004.22;5034356;28;45585;-75
2023/10/10 00:08:18;;;;;;;;;18.33;17.00;;;;;16.86;100.00;102006.88;5034033;28;45436;-76
2023/10/10 00:10:49;;;;;;;;;22.00;20.00;;;;;16.85;100.00;102007.78;5036644;28;45399;-75
2023/10/10 00:13:16;;;;;;;;;25.33;19.00;;;;;16.82;100.00;102005.97;5036157;28;45773;-76
2023/10/10 00:15:49;;;;;;;;;21.00;20.00;;;;;16.77;100.00;102011.28;5041290;28;45608;-75
2023/10/10 00:18:19;;;;;;;;;21.33;16.33;;;;;16.80;100.00;102014.88;5037665;28;46579;-75
2023/10/10 00:21:06;;;;;;;;;20.33;20.33;;;;;16.75;100.00;102007.72;5038336;28;45424;-77
2023/10/10 00:23:38;;;;;;;;;19.33;19.33;;;;;16.73;100.00;102011.28;5043339;28;45622;-77
2023/10/10 00:26:05;;;;;;;;;17.67;16.33;;;;;16.68;100.00;102005.00;5044733;28;46309;-78
2023/10/10 00:28:33;;;;;;;;;21.00;18.00;;;;;16.68;100.00;102016.56;5046186;28;45866;-77
2023/10/10 00:30:59;;;;;;;;;20.67;17.67;;;;;16.64;100.00;102005.88;5047690;28;45517;-75
2023/10/10 00:33:25;;;;;;;;;19.00;16.00;;;;;16.66;100.00;102004.97;5048650;28;45448;-75
2023/10/10 00:35:51;;;;;;;;;20.67;19.00;;;;;16.65;100.00;102013.88;5051036;28;45435;-76
2023/10/10 00:38:24;;;;;;;;;19.67;18.67;;;;;16.64;100.00;102012.09;5068594;28;47128;-76
2023/10/10 00:40:50;;;;;;;;;26.00;21.00;;;;;16.62;100.00;102010.28;5043861;28;45545;-77
2023/10/10 00:43:16;;;;;;;;;20.00;19.00;;;;;16.59;100.00;102010.28;5036545;28;45556;-76
2023/10/10 00:45:43;;;;;;;;;22.67;15.67;;;;;16.59;100.00;102010.28;5038327;28;45602;-75
2023/10/10 00:48:09;;;;;;;;;21.00;17.33;;;;;16.60;100.00;102012.94;5048264;28;46320;-76
2023/10/10 00:50:37;;;;;;;;;21.67;18.67;;;;;16.56;100.00;102012.91;5042000;28;45613;-77
2023/10/10 00:53:06;;;;;;;;;23.67;17.00;;;;;16.55;100.00;102014.69;5045392;28;45576;-78
2023/10/10 00:55:36;;;;;;;;;21.33;19.00;;;;;16.53;100.00;102010.25;5041397;28;45614;-75
2023/10/10 00:58:02;;;;;;;;;20.67;15.33;;;;;16.50;100.00;102004.00;5048182;28;47588;-76
2023/10/10 01:00:31;;;;;;;;;19.33;16.00;;;;;16.52;100.00;102003.16;5048919;28;45475;-78
2023/10/10 01:03:41;;;;;;;;;19.00;18.33;;;;;16.51;100.00;101999.56;5055694;28;45443;-78
2023/10/10 01:05:53;;;;;;;;;24.67;17.00;;;;;16.47;100.00;101989.78;5027956;28;45914;-78
2023/10/10 01:08:19;;;;;;;;;23.33;18.00;;;;;16.46;100.00;101991.56;5037821;28;45851;-75
2023/10/10 01:10:49;;;;;;;;;20.00;17.67;;;;;16.46;100.00;101990.69;5038660;28;45413;-76
2023/10/10 01:13:15;;;;;;;;;15.00;15.00;;;;;16.45;100.00;101994.19;5039599;28;45492;-75
2023/10/10 01:15:48;;;;;;;;;20.33;18.33;;;;;16.42;100.00;101989.75;5045396;28;45586;-75
2023/10/10 01:18:14;;;;;;;;;21.67;19.00;;;;;16.39;100.00;101981.72;5041495;28;47588;-75
2023/10/10 01:20:46;;;;;;;;;20.33;17.67;;;;;16.39;100.00;101984.41;5048093;28;45418;-75
2023/10/10 01:23:14;;;;;;;;;21.00;18.00;;;;;16.36;100.00;101983.50;5039732;28;45442;-75
2023/10/10 01:28:33;;;;;;;;;19.00;18.00;;;;;16.34;100.00;101986.16;5047555;28;46459;-75
2023/10/10 01:33:35;;;;;;;;;26.00;21.00;;;;;16.37;100.00;101987.94;5036288;28;45382;-76
2023/10/10 01:36:03;;;;;;;;;20.25;18.25;;;;;16.34;100.00;101982.59;5035515;28;45527;-75
2023/10/10 01:38:59;;;;;;;;;18.00;17.00;;;;;16.31;100.00;101980.81;5035381;28;46706;-75
2023/10/10 01:41:38;;;;;;;;;17.00;17.00;;;;;16.33;100.00;101983.47;5035148;28;45676;-74
2023/10/10 01:44:13;;;;;;;;;20.00;18.00;;;;;16.32;100.00;101971.94;5149501;22;45516;-75
2023/10/10 01:46:41;;;;;;;;;18.67;15.33;;;;;16.29;100.00;101971.00;5046459;28;45590;-76
2023/10/10 01:49:52;;;;;;;;;17.33;17.33;;;;;16.25;100.00;101964.78;5049669;28;45488;-76
2023/10/10 01:51:58;;;;;;;;;22.00;17.00;;;;;16.29;100.00;101971.00;5045251;28;45431;-75
2023/10/10 01:54:34;;;;;;;;;20.00;18.00;;;;;16.23;100.00;101972.75;5054172;28;45487;-75
2023/10/10 01:57:00;;;;;;;;;20.50;15.25;;;;;16.21;100.00;101966.53;5044240;28;45454;-75
2023/10/10 01:59:35;;;;;;;;;21.00;18.75;;;;;16.20;100.00;101964.75;5050587;28;46699;-76
2023/10/10 02:02:02;;;;;;;;;25.00;18.67;;;;;16.23;100.00;101969.19;5053316;28;45550;-75
2023/10/10 02:04:34;;;;;;;;;21.67;19.00;;;;;16.20;100.00;101967.44;5036442;28;45380;-75
2023/10/10 02:07:04;;;;;;;;;25.50;17.00;;;;;16.18;100.00;101963.84;5039517;28;45500;-75
2023/10/10 02:09:33;;;;;;;;;19.00;15.33;;;;;16.17;100.00;101956.72;5051188;28;46625;-76
2023/10/10 02:12:08;;;;;;;;;21.00;19.67;;;;;16.13;100.00;101959.38;5042641;28;45596;-76
2023/10/10 02:14:33;;;;;;;;;15.67;15.00;;;;;16.10;100.00;101959.38;5039303;28;45427;-76
2023/10/10 02:17:07;;;;;;;;;18.00;17.33;;;;;16.16;100.00;101970.06;5046045;28;45365;-77
2023/10/10 02:19:39;;;;;;;;;17.75;17.75;;;;;16.17;100.00;101953.19;5041120;28;46628;-76
2023/10/10 02:22:22;;;;;;;;;19.67;17.67;;;;;16.11;100.00;101958.47;5048336;28;45443;-76
2023/10/10 02:25:31;;;;;;;;;15.00;13.67;;;;;16.08;100.00;101953.13;5047452;28;45458;-76
2023/10/10 02:27:53;;;;;;;;;20.67;19.00;;;;;16.08;100.00;101946.00;5050895;27;45397;-77
2023/10/10 02:30:25;;;;;;;;;17.33;15.33;;;;;16.05;100.00;101955.78;5061760;28;47944;-79
2023/10/10 02:32:51;;;;;;;;;19.00;14.00;;;;;16.04;100.00;101954.00;5049294;28;45578;-77
2023/10/10 02:35:26;;;;;;;;;16.00;15.00;;;;;16.03;100.00;101958.41;5052972;28;45474;-76
2023/10/10 02:37:54;;;;;;;;;20.33;17.00;;;;;16.02;100.00;101953.97;5051932;28;45468;-76
2023/10/10 02:40:29;;;;;;;;;18.67;16.00;;;;;16.04;100.00;101949.56;5034827;28;46724;-78
2023/10/10 02:45:44;;;;;;;;;17.67;17.67;;;;;16.01;100.00;101953.97;5036187;28;45441;-75
2023/10/10 02:48:09;;;;;;;;;16.00;14.33;;;;;16.02;100.00;101953.09;5047198;28;45553;-76
2023/10/10 02:50:41;;;;;;;;;17.00;15.67;;;;;15.99;100.00;101959.31;5041093;28;71944;-76
2023/10/10 02:53:09;;;;;;;;;18.00;15.67;;;;;15.97;100.00;101958.38;5045763;28;45397;-76
2023/10/10 02:55:40;;;;;;;;;17.33;16.33;;;;;15.96;100.00;101956.59;5042828;28;45523;-75
2023/10/10 02:58:20;;;;;;;;;20.33;17.33;;;;;15.96;100.00;101951.28;5042844;28;45590;-74
2023/10/10 03:00:47;;;;;;;;;18.67;16.00;;;;;15.94;100.00;101951.28;5048768;28;47006;-78
2023/10/10 03:03:18;;;;;;;;;20.00;18.00;;;;;15.95;100.00;101947.72;5053968;28;45569;-77
2023/10/10 03:05:50;;;;;;;;;19.00;14.67;;;;;15.95;100.00;101946.84;5051676;28;45474;-76
2023/10/10 03:08:18;;;;;;;;;21.00;17.00;;;;;15.95;100.00;101944.16;5039340;28;45904;-76
2023/10/10 03:10:54;;;;;;;;;17.00;17.00;;;;;15.95;100.00;101938.84;5050533;28;47740;-76
2023/10/10 03:13:36;;;;;;;;;16.33;15.33;;;;;15.92;100.00;101931.69;5052321;28;45482;-75
2023/10/10 03:21:43;;;;;;;;;20.00;16.33;;;;;15.91;100.00;101937.91;5036969;28;45533;-78
2023/10/10 03:24:20;;;;;;;;;14.67;12.67;;;;;15.90;100.00;101938.81;5047717;28;45877;-76
2023/10/10 03:29:20;;;;;;;;;13.67;13.00;;;;;15.89;100.00;101939.69;5039825;28;45404;-75
2023/10/10 03:34:44;;;;;;;;;19.00;16.33;;;;;15.84;100.00;101937.88;5046907;28;45556;-75
2023/10/10 03:37:29;;;;;;;;;16.33;14.00;;;;;15.81;100.00;101940.50;5045770;28;45509;-76
2023/10/10 03:39:57;;;;;;;;;13.67;13.67;;;;;15.81;100.00;101929.84;5047427;28;45513;-75
2023/10/10 05:23:50;;;;;;;;;15.67;15.00;;;;;15.42;100.00;101912.66;5066931;28;45456;-76
2023/10/10 05:26:19;;;;;;;;;18.67;16.67;;;;;15.45;100.00;101907.38;5069252;27;45747;-77
2023/10/10 05:28:46;;;;;;;;;22.33;15.00;;;;;15.42;100.00;101904.69;5057271;28;45501;-76
2023/10/10 05:31:11;;;;;;;;;22.50;19.25;;;;;15.40;100.00;101896.69;5053163;28;46704;-75
2023/10/10 05:33:37;;;;;;;;;23.50;19.25;;;;;15.38;100.00;101895.78;5056313;28;65556;-77
2023/10/10 05:36:09;;;;;;;;;17.67;16.00;;;;;15.39;100.00;101897.59;5055361;28;45659;-76
2023/10/10 05:38:36;;;;;;;;;20.75;18.75;;;;;15.35;100.00;101892.22;5053391;28;45438;-76
2023/10/10 05:41:03;;;;;;;;;21.00;18.75;;;;;15.34;100.00;101887.75;5055363;28;46828;-76
2023/10/10 05:43:33;;;;;;;;;17.75;15.25;;;;;15.33;100.00;101889.53;5054786;28;45536;-74
2023/10/10 05:45:59;;;;;;;;;21.00;19.00;;;;;15.36;100.00;101888.66;5053133;28;45547;-74
2023/10/10 05:48:26;;;;;;;;;19.00;16.33;;;;;15.35;100.00;101885.13;5053253;27;45429;-74
2023/10/10 05:50:53;;;;;;;;;17.25;17.25;;;;;15.38;100.00;101889.56;5053451;28;46372;-75
2023/10/10 05:53:20;;;;;;;;;21.00;18.75;;;;;15.38;100.00;101889.56;5053805;28;45521;-75
2023/10/10 05:55:51;;;;;;;;;24.67;19.00;;;;;15.36;100.00;101900.19;5056214;28;45494;-75
2023/10/10 05:58:17;;;;;;;;;22.00;20.67;;;;;15.37;100.00;101896.66;5054110;28;45486;-74
2023/10/10 06:00:44;;;;;;;;;27.25;21.25;;;;;15.35;100.00;101892.22;5053621;28;47482;-77
2023/10/10 06:03:12;;;;;;;;;24.25;22.50;;;;;15.34;100.00;101893.06;5053217;28;45403;-77
2023/10/10 06:05:42;;;;;;;;;28.00;20.50;;;;;15.37;100.00;101898.44;5051540;28;45561;-72
2023/10/10 06:08:07;;;;;;;;;24.50;21.50;;;;;15.37;100.00;101906.41;5054699;28;45745;-76
2023/10/10 06:10:33;;;;;;;;;21.75;20.00;;;;;15.37;100.00;101901.09;5048857;28;47429;-77
2023/10/10 06:13:03;;;;;;;;;19.50;16.50;;;;;15.39;100.00;101907.31;5046606;28;45514;-78
2023/10/10 06:15:29;;;;;;;;;22.00;17.50;;;;;15.41;100.00;101902.91;5050198;28;45557;-78
2023/10/10 06:17:57;;;;;;;;;17.33;17.33;;;;;15.44;100.00;101913.56;5054240;28;45567;-77
2023/10/10 06:20:23;;;;;;;;;25.25;23.25;;;;;15.39;100.00;101900.25;5055436;28;46779;-76
2023/10/10 06:22:49;;;;;;;;;27.00;24.00;;;;;15.38;100.00;101914.41;5050881;28;45516;-77
2023/10/10 06:25:18;;;;;;;;;19.75;18.75;;;;;15.36;100.00;101918.84;5056544;28;45642;-78
2023/10/10 06:27:54;;;;;;;;;24.75;23.00;;;;;15.36;100.00;101917.94;5047707;28;45636;-77
2023/10/10 06:30:24;;;;;;;;;21.75;19.00;;;;;15.38;100.00;101921.50;5053002;28;47634;-78
2023/10/10 06:32:50;;;;;;;;;22.50;19.75;;;;;15.44;100.00;101929.53;5047648;28;45654;-77
2023/10/10 06:37:41;;;;;;;;;30.00;24.25;;;;;15.55;100.00;101917.19;5048915;28;45569;-78
2023/10/10 06:40:08;;;;;;;;;25.00;23.50;;;;;15.64;100.00;101909.31;5056871;28;45819;-76
2023/10/10 06:42:37;;;;;;;;;27.75;25.75;;;;;15.69;100.00;101910.25;5052397;28;45545;-74
2023/10/10 06:45:10;;;;;;;;;27.25;24.75;;;;;15.74;100.00;101912.06;5067638;27;45825;-77
2023/10/10 06:47:39;;;;;;;;;25.75;24.50;;;;;15.80;100.00;101915.66;5059126;28;45962;-78
2023/10/10 06:50:11;;;;;;;;;30.50;26.75;;;;;15.87;100.00;101919.25;5054666;28;46002;-77
2023/10/10 06:52:37;;;;;;;;;25.00;24.00;;;;;15.93;100.00;101917.53;5052341;28;45533;-76
2023/10/10 06:55:10;;;;;;;;;34.25;27.25;;;;;16.02;100.00;101915.78;5051025;28;45491;-75
2023/10/10 06:57:36;;;;;;;;;31.50;27.00;;;;;16.09;100.00;101922.94;5063127;28;45891;-76
2023/10/10 07:00:21;;;;;;;;;30.25;24.50;;;;;16.19;100.00;101920.34;5052624;28;46481;-75
2023/10/10 07:02:52;;;;;;;;;38.25;29.50;;;;;16.24;100.00;101923.00;5051579;28;45687;-76
2023/10/10 07:05:19;;;;;;;;;30.50;24.00;;;;;16.33;100.00;101923.06;5049740;28;46173;-76
2023/10/10 07:07:52;;;;;;;;;32.50;27.00;;;;;16.42;100.00;101924.91;5053237;28;45674;-76
2023/10/10 07:10:25;;;;;;;;;16.25;14.25;;;;;16.49;100.00;101937.34;5051504;28;47448;-76
2023/10/10 07:12:54;;;;;;;;;26.00;26.00;;;;;16.56;100.00;101935.59;5046383;28;45507;-76
2023/10/10 07:15:21;;;;;;;;;34.00;29.00;;;;;16.64;100.00;101929.41;5049403;28;45395;-75
2023/10/10 07:17:49;;;;;;;;;32.75;26.75;;;;;16.73;100.00;101931.28;5054747;28;45414;-76
2023/10/10 07:22:41;;;;;;;;;36.50;32.25;;;;;16.95;100.00;101930.44;5066098;27;45660;-75
2023/10/10 07:25:08;;;;;;;;;35.00;28.00;;;;;17.04;100.00;101937.56;5056247;28;45862;-76
2023/10/10 07:27:35;;;;;;;;;28.75;25.25;;;;;17.11;100.00;101935.81;5051564;28;45494;-76
2023/10/10 07:30:08;;;;;;;;;34.50;27.75;;;;;17.20;100.00;101930.47;5054029;28;46623;-76
2023/10/10 07:32:38;;;;;;;;;36.50;31.00;;;;;17.28;100.00;101924.25;5057653;28;45693;-76
2023/10/10 07:35:05;;;;;;;;;30.75;26.25;;;;;17.38;100.00;101924.28;5055425;28;45554;-76
2023/10/10 07:37:31;;;;;;;;;35.00;30.00;;;;;17.41;100.00;101925.13;5053220;28;45805;-76
2023/10/10 07:40:05;;;;;;;;;32.25;29.75;;;;;17.48;100.00;101918.03;5054604;28;46496;-76
2023/10/10 07:42:31;;;;;;;;;33.75;27.25;;;;;17.65;100.00;101931.38;5055027;28;45502;-76
2023/10/10 07:44:57;;;;;;;;;31.25;27.75;;;;;17.72;100.00;101930.47;5056083;28;45904;-76
2023/10/10 07:47:26;;;;;;;;;39.75;29.00;;;;;17.79;100.00;101940.31;5057018;28;45583;-76
2023/10/10 07:49:55;;;;;;;;;34.00;30.00;;;;;17.84;100.00;101929.59;5061215;28;47143;-76
2023/10/10 07:52:20;;;;;;;;;34.75;29.00;;;;;17.94;100.00;101934.03;5045814;28;45363;-77
2023/10/10 07:54:51;;;;;;;;;31.75;29.50;;;;;18.03;100.00;101931.34;5055942;27;45638;-76
2023/10/10 07:57:22;;;;;;;;;40.50;30.75;;;;;18.12;100.00;101927.78;5056810;28;45476;-76
2023/10/10 07:59:58;;;;;;;;;32.50;31.00;;;;;18.20;100.00;101948.25;5054982;28;46399;-77
2023/10/10 08:02:24;;;;;;;;;37.75;32.25;;;;;18.28;100.00;101957.16;5051049;28;45525;-76
2023/10/10 08:05:01;;;;;;;;;36.00;33.00;;;;;18.30;100.00;101947.31;5051258;28;45548;-76
2023/10/10 08:07:28;;;;;;;;;42.00;33.00;;;;;18.33;100.00;101950.00;5057432;28;45648;-76
2023/10/10 08:10:13;;;;;;;;;42.00;33.25;;;;;18.39;100.00;101948.19;5051126;28;47581;-76
2023/10/10 08:12:39;;;;;;;;;41.25;32.75;;;;;18.41;100.00;101939.25;5047144;28;45569;-76
2023/10/10 08:15:20;;;;;;;;;40.00;33.00;;;;;18.46;100.00;101939.25;5047077;28;45479;-75
2023/10/10 08:17:52;;;;;;;;;38.75;33.75;;;;;18.52;100.00;101934.75;5046375;28;45696;-77
2023/10/10 08:21:23;;;;;;;;;45.25;35.25;;;;;18.59;100.00;101938.31;5047962;28;47420;-76
2023/10/10 08:23:17;;;;;;;;;35.75;31.75;;;;;18.63;100.00;101925.78;5044045;28;45613;-76
2023/10/10 08:25:42;;;;;;;;;40.00;34.75;;;;;18.72;100.00;101924.00;5051367;28;45537;-76
2023/10/10 08:28:07;;;;;;;;;45.50;34.25;;;;;18.78;100.00;101921.28;5053410;28;45528;-77
2023/10/10 08:30:33;;;;;;;;;39.00;30.25;;;;;18.85;100.00;101924.81;5040236;27;54517;-76
2023/10/10 08:32:59;;;;;;;;;45.50;35.75;;;;;18.93;100.00;101923.00;5048484;28;69638;-77
2023/10/10 08:35:29;;;;;;;;;42.50;33.50;;;;;19.01;100.00;101930.97;5044985;28;45485;-76
2023/10/10 08:37:57;;;;;;;;;38.00;32.00;;;;;19.08;100.00;101930.06;5047824;28;45669;-76
2023/10/10 08:40:25;;;;;;;;;40.25;35.75;;;;;19.16;100.00;101930.88;5041966;28;47619;-76
2023/10/10 08:42:51;;;;;;;;;46.00;36.00;;;;;19.21;100.00;101918.34;5044408;28;45738;-76
2023/10/10 08:45:23;;;;;;;;;45.25;37.00;;;;;19.31;100.00;101914.69;5045992;28;60655;-76
2023/10/10 08:48:00;;;;;;;;;47.25;38.25;;;;;19.33;100.00;101909.31;5044311;28;45293;-76
2023/10/10 08:50:26;;;;;;;;;49.00;36.50;;;;;19.36;100.00;101914.66;5047032;28;47500;-77
2023/10/10 08:52:52;;;;;;;;;47.00;35.75;;;;;19.38;100.00;101926.25;5055005;28;45438;-76
2023/10/10 08:55:26;;;;;;;;;47.50;36.75;;;;;19.38;100.00;101916.41;5058577;27;62414;-77
2023/10/10 08:57:51;;;;;;;;;48.25;39.00;;;;;19.42;100.00;101916.41;5048653;28;45413;-76
2023/10/10 09:00:17;;;;;;;;;47.50;36.50;;;;;19.45;100.00;101919.06;5052647;28;47561;-76
2023/10/10 09:02:48;;;;;;;;;50.25;39.25;;;;;19.48;100.00;101908.31;5058688;28;46022;-76
2023/10/10 09:05:14;;;;;;;;;47.50;39.50;;;;;19.55;100.00;101918.97;5055137;28;45558;-76
2023/10/10 09:07:43;;;;;;;;;49.50;38.75;;;;;19.61;100.00;101915.38;5054868;28;45559;-76
2023/10/10 09:10:14;;;;;;;;;49.25;38.00;;;;;19.69;100.00;101910.81;5057680;28;48180;-76
2023/10/10 09:12:56;;;;;;;;;51.75;39.00;;;;;19.77;100.00;101913.44;5052717;27;45912;-76
2023/10/10 09:15:22;;;;;;;;;47.50;38.50;;;;;19.86;100.00;101908.84;5048131;27;45590;-77
2023/10/10 09:17:48;;;;;;;;;50.00;38.00;;;;;19.96;100.00;101914.13;5049863;28;45666;-77
2023/10/10 09:20:30;;;;;;;;;51.50;40.50;;;;;20.05;100.00;101901.53;5048186;28;47623;-76
2023/10/10 09:23:11;;;;;;;;;48.00;38.00;;;;;20.17;100.00;101900.50;5052244;28;45538;-76
2023/10/10 09:26:09;;;;;;;;;47.00;36.75;;;;;20.33;100.00;101895.84;5054548;28;45432;-76
2023/10/10 09:28:45;;;;;;;;;44.50;36.75;;;;;20.52;100.00;101891.16;5049550;28;46162;-76
2023/10/10 09:31:20;;;;;;;;;42.75;36.25;;;;;20.63;100.00;101878.50;5052076;28;47908;-76
2023/10/10 09:33:47;;;;;;;;;29.50;24.25;;;;;20.72;100.00;101882.81;5046252;28;46814;-77
2023/10/10 09:36:19;;;;;;;;;46.25;35.00;;;;;20.77;100.00;101881.84;5051341;28;45602;-77
2023/10/10 09:38:48;;;;;;;;;39.67;31.67;;;;;20.85;100.00;101885.31;5046582;28;45474;-76
2023/10/10 09:55:39;;;;;;;;;32.67;26.67;;;;;21.06;100.00;101876.03;5054021;28;46151;-76
2023/10/10 09:58:00;;;;;;;;;28.67;25.00;;;;;21.13;100.00;101869.66;5052957;28;45569;-76
2023/10/10 10:00:45;;;;;;;;;22.33;20.33;;;;;21.23;100.00;101877.56;5055235;28;45503;-75
2023/10/10 10:09:09;;;;;;;;;21.00;18.33;;;;;21.69;100.00;101848.13;5049169;28;46458;-74
2023/10/10 10:11:52;;;;;;;;;20.33;19.00;;;;;21.85;100.00;101852.31;5053104;28;45435;-74
2023/10/10 10:14:27;;;;;;;;;19.33;17.67;;;;;21.99;100.00;101852.00;5052284;28;46733;-73
2023/10/10 10:17:12;;;;;;;;;24.00;18.67;;;;;22.09;100.00;101845.53;5056067;28;45480;-76
2023/10/10 10:19:45;;;;;;;;;26.00;22.67;;;;;22.16;100.00;101852.59;5044612;28;45612;-75
2023/10/10 10:22:14;;;;;;;;;22.67;18.00;;;;;22.30;100.00;101846.91;5052850;28;45953;-75
2023/10/10 10:24:44;;;;;;;;;14.67;14.67;;;;;22.41;100.00;101847.56;5052903;28;46405;-76
2023/10/10 10:27:24;;;;;;;;;17.00;16.33;;;;;22.58;100.00;101844.50;5055907;28;45414;-74
2023/10/10 10:32:46;;;;;;;;;11.33;11.33;;;;;22.80;100.00;101831.44;5054617;28;45482;-76
2023/10/10 10:35:19;;;;;;;;;16.00;12.33;;;;;22.91;100.00;101831.22;5057958;28;47131;-76
2023/10/10 10:37:54;;;;;;;;;14.67;10.33;;;;;22.97;100.00;101821.16;5048707;28;45474;-76
2023/10/10 10:40:24;;;;;;;;;12.33;12.33;;;;;23.05;100.00;101825.47;5053764;28;45879;-76
2023/10/10 10:42:50;;;;;;;;;12.67;11.67;;;;;23.05;100.00;101826.34;5047280;28;46434;-77
2023/10/10 10:45:34;;;;;;;;;15.33;12.67;;;;;23.03;100.00;101824.63;5068166;27;47419;-76
2023/10/10 10:48:07;;;;;;;;;10.00;9.67;;;;;22.97;100.00;101828.38;5053629;28;45496;-76
2023/10/10 10:50:42;;;;;;;;;12.00;10.67;;;;;22.92;100.00;101833.88;5053974;28;45726;-75
2023/10/10 10:53:20;;;;;;;;;16.67;10.00;;;;;22.89;100.00;101838.44;5047009;28;45618;-76
2023/10/10 10:55:52;;;;;;;;;13.00;9.00;;;;;22.85;100.00;101828.63;5046196;28;46669;-76
2023/10/10 10:58:20;;;;;;;;;14.67;10.00;;;;;22.88;100.00;101831.28;5052137;28;45462;-76
2023/10/10 11:03:35;;;;;;;;;10.00;10.00;;;;;22.95;100.00;101824.81;5050454;28;46700;-76
2023/10/10 11:06:06;;;;;;;;;12.67;10.33;;;;;23.03;100.00;101822.81;5051294;28;47566;-75
2023/10/10 11:14:01;;;;;;;;;10.33;9.67;;;;;23.30;100.00;101807.75;5051825;28;45518;-75
2023/10/10 11:16:45;;;;;;;;;16.33;10.00;;;;;23.45;100.00;101803.78;5065739;27;47823;-75
2023/10/10 11:21:50;;;;;;;;;12.00;9.00;;;;;23.84;100.00;101796.41;5056537;28;45461;-76
2023/10/10 11:24:23;;;;;;;;;13.00;12.00;;;;;23.97;100.00;101781.66;5053806;28;45704;-76
2023/10/10 11:29:42;;;;;;;;;11.00;9.00;;;;;24.34;100.00;101779.63;5053952;28;45540;-76
2023/10/10 11:32:11;;;;;;;;;8.33;8.33;;;;;24.42;100.00;101781.19;5056719;28;45441;-76
2023/10/10 11:34:47;;;;;;;;;7.00;7.00;;;;;24.48;100.00;101758.53;5051336;28;45792;-76
2023/10/10 11:37:32;;;;;;;;;9.67;6.67;;;;;24.67;100.00;101758.81;5053681;27;46373;-76
2023/10/10 11:43:04;;;;;;;;;12.33;9.00;;;;;25.12;100.00;101729.38;5053709;28;45518;-76
2023/10/10 11:45:39;;;;;;;;;9.00;8.00;;;;;25.31;100.00;101719.69;5052362;28;45395;-75
2023/10/10 11:48:12;;;;;;;;;10.67;8.67;;;;;25.49;100.00;101719.94;5059077;28;47541;-75
2023/10/10 11:50:48;;;;;;;;;11.33;9.33;;;;;25.58;100.00;101715.06;5051619;28;45580;-74
2023/10/10 11:53:24;;;;;;;;;8.67;8.67;;;;;25.63;100.00;101711.31;5053997;28;45442;-76
2023/10/10 11:55:53;;;;;;;;;7.00;7.00;;;;;25.66;100.00;101703.06;5054748;28;45435;-76
2023/10/10 11:58:19;;;;;;;;;13.00;11.00;;;;;25.71;100.00;101706.47;5056223;28;46463;-76
2023/10/10 12:01:03;;;;;;;;;11.00;8.33;;;;;25.65;100.00;101702.19;5053442;28;45450;-76
2023/10/10 12:06:04;;;;;;;;;8.00;8.00;;;;;25.57;100.00;101691.66;5054058;28;45423;-75
2023/10/10 12:08:29;;;;;;;;;10.67;8.00;;;;;25.56;100.00;101684.47;5055532;28;46639;-77
2023/10/10 12:11:06;;;;;;;;;7.33;7.33;;;;;25.55;100.00;101684.53;5056997;28;58219;-76
2023/10/10 12:16:00;;;;;;;;;8.33;8.00;;;;;25.61;100.00;101685.19;5052707;27;45945;-76
2023/10/10 12:18:30;;;;;;;;;8.00;8.00;;;;;25.60;100.00;101680.72;5052157;28;46738;-76
2023/10/10 12:21:01;;;;;;;;;9.33;6.33;;;;;25.64;100.00;101667.09;5049612;28;45541;-77
2023/10/10 12:23:26;;;;;;;;;6.00;6.00;;;;;25.65;100.00;101669.72;5064845;27;45524;-77
2023/10/10 12:25:54;;;;;;;;;9.00;6.00;;;;;25.60;100.00;101664.50;5049049;28;45517;-76
2023/10/10 12:28:19;;;;;;;;;9.33;8.00;;;;;25.58;100.00;101658.28;5053935;28;47527;-77
2023/10/10 12:30:45;;;;;;;;;9.67;8.67;;;;;25.55;100.00;101655.66;5047595;28;45517;-76
2023/10/10 12:33:15;;;;;;;;;10.00;8.00;;;;;25.54;100.00;101651.19;5058210;28;63647;-75
2023/10/10 12:35:46;;;;;;;;;8.00;7.00;;;;;25.53;100.00;101645.88;5051645;28;45622;-76
2023/10/10 12:38:15;;;;;;;;;12.67;10.00;;;;;25.63;100.00;101643.69;5058763;28;46744;-76
2023/10/10 12:40:43;;;;;;;;;10.00;10.00;;;;;25.59;100.00;101643.78;5056661;28;45546;-75
2023/10/10 12:43:11;;;;;;;;;11.33;9.67;;;;;25.59;100.00;101646.50;5054217;28;45470;-75
2023/10/10 12:45:37;;;;;;;;;13.00;9.00;;;;;25.52;100.00;101638.69;5048347;28;45496;-76
2023/10/10 12:48:04;;;;;;;;;9.67;9.67;;;;;25.51;100.00;101628.78;5047555;28;46171;-75
2023/10/10 12:50:30;;;;;;;;;13.00;10.33;;;;;25.49;100.00;101628.88;5057503;28;45844;-76
2023/10/10 12:53:07;;;;;;;;;12.00;9.00;;;;;25.43;100.00;101636.34;5051117;28;45571;-77
2023/10/10 12:55:46;;;;;;;;;8.67;8.33;;;;;25.39;100.00;101630.16;5047575;28;45475;-75
2023/10/10 12:58:15;;;;;;;;;12.33;10.00;;;;;25.42;100.00;101624.66;5052396;28;46528;-74
2023/10/10 13:00:49;;;;;;;;;8.67;8.67;;;;;25.43;100.00;101625.53;5051026;28;45780;-75
2023/10/10 13:03:15;;;;;;;;;9.00;9.00;;;;;25.40;100.00;101623.78;5053521;28;45454;-76
2023/10/10 13:05:41;;;;;;;;;7.00;7.00;;;;;25.38;100.00;101623.00;5050209;28;45527;-76
2023/10/10 13:08:06;;;;;;;;;9.00;8.00;;;;;25.42;100.00;101612.94;5054808;28;45634;-75
2023/10/10 13:10:37;;;;;;;;;11.67;8.00;;;;;25.43;100.00;101612.88;5044137;28;45768;-74
2023/10/10 13:13:03;;;;;;;;;8.33;7.67;;;;;25.53;100.00;101619.69;5043492;28;45555;-74
2023/10/10 13:15:30;;;;;;;;;8.00;8.00;;;;;25.58;100.00;101612.28;5055211;28;45474;-76
2023/10/10 13:20:43;;;;;;;;;12.67;9.67;;;;;25.73;100.00;101615.34;5053844;28;45701;-74
2023/10/10 13:23:09;;;;;;;;;7.33;6.33;;;;;25.76;100.00;101608.00;5046623;28;45947;-74
2023/10/10 13:25:37;;;;;;;;;6.67;6.00;;;;;25.79;100.00;101612.41;5046270;28;45458;-74
2023/10/10 13:28:09;;;;;;;;;8.00;8.00;;;;;25.84;100.00;101600.47;5047562;28;46948;-73
2023/10/10 13:30:38;;;;;;;;;7.67;7.67;;;;;25.87;100.00;101602.16;5044517;28;45464;-75
2023/10/10 13:33:06;;;;;;;;;6.00;6.00;;;;;25.91;100.00;101602.91;5065191;28;45584;-75
2023/10/10 13:35:32;;;;;;;;;6.00;6.00;;;;;25.89;100.00;101600.28;5044052;28;45693;-75
2023/10/10 13:37:57;;;;;;;;;8.33;6.33;;;;;25.95;100.00;101594.63;5055874;28;47051;-74
2023/10/10 13:40:23;;;;;;;;;8.67;8.33;;;;;26.06;100.00;101592.34;5050056;28;69738;-74
2023/10/10 13:42:49;;;;;;;;;11.00;6.67;;;;;26.19;100.00;101581.00;5052260;28;45795;-75
2023/10/10 13:45:19;;;;;;;;;9.00;8.00;;;;;26.28;100.00;101591.44;5147743;22;45397;-75
2023/10/10 13:47:48;;;;;;;;;9.33;6.67;;;;;26.29;100.00;101591.38;5049356;28;45658;-75
2023/10/10 13:50:31;;;;;;;;;7.67;7.67;;;;;26.31;100.00;101594.00;5050267;28;45538;-75
2023/10/10 13:52:59;;;;;;;;;11.67;8.00;;;;;26.38;100.00;101590.13;5052852;28;45943;-75
2023/10/10 13:55:26;;;;;;;;;5.00;5.00;;;;;26.45;100.00;101586.22;5053329;28;45880;-75
2023/10/10 13:57:53;;;;;;;;;7.00;7.00;;;;;26.52;100.00;101589.53;5049819;28;46492;-74
2023/10/10 14:00:39;;;;;;;;;8.00;8.00;;;;;26.59;100.00;101582.91;5052152;28;45543;-75
2023/10/10 14:03:04;;;;;;;;;8.00;8.00;;;;;26.73;100.00;101587.72;5052694;28;45715;-75
2023/10/10 14:05:34;;;;;;;;;8.33;7.00;;;;;26.80;100.00;101590.09;5052097;28;45645;-76
2023/10/10 14:08:03;;;;;;;;;7.33;7.33;;;;;26.90;100.00;101582.44;5052713;28;46398;-75
2023/10/10 14:10:35;;;;;;;;;8.00;8.00;;;;;26.89;100.00;101580.66;5050529;28;45468;-75
2023/10/10 14:13:18;;;;;;;;;7.33;7.00;;;;;26.93;100.00;101587.69;5046262;28;45566;-75